Time;durP1;ratioP1;P1;durP2;ratioP2;P2;SDS_P1;SDS_P2;PMS_P1;PMS_P2;Temp;Humidity;BMP_temperature;BMP_pressure;BME280_temperature;BME280_humidity;BME280_pressure;Samples;Min_cycle;Max_cycle;Signal;HPM_P1;HPM_P2
2020/12/12 00:01:26;;;;;;;32.72;17.05;;;;;;;2.34;93.74;96770.34;4952946;28;20087;-69
2020/12/12 00:03:51;;;;;;;26.55;15.23;;;;;;;2.31;93.79;96766.97;4953291;29;20035;-69
2020/12/12 00:06:21;;;;;;;26.67;15.63;;;;;;;2.31;94.03;96769.50;4953630;28;20038;-69
2020/12/12 00:08:47;;;;;;;32.50;14.68;;;;;;;2.30;94.09;96770.38;4953792;28;20034;-69
2020/12/12 00:11:12;;;;;;;30.65;16.42;;;;;;;2.30;94.10;96760.16;4953667;29;20027;-69
2020/12/12 00:13:37;;;;;;;29.88;16.15;;;;;;;2.30;94.00;96759.34;4953457;28;20046;-69
2020/12/12 00:16:06;;;;;;;27.63;15.05;;;;;;;2.30;94.24;96760.16;4953282;29;20023;-69
2020/12/12 00:18:31;;;;;;;27.00;15.45;;;;;;;2.31;94.61;96755.91;4953447;29;20529;-69
2020/12/12 00:20:56;;;;;;;33.45;16.67;;;;;;;2.28;94.51;96755.97;4953398;28;20106;-69
2020/12/12 00:23:22;;;;;;;26.35;15.23;;;;;;;2.33;94.32;96758.44;4953193;28;20476;-69
2020/12/12 00:25:47;;;;;;;31.55;16.17;;;;;;;2.34;94.22;96750.75;4953422;28;20094;-69
2020/12/12 00:28:14;;;;;;;30.70;16.45;;;;;;;2.39;94.26;96758.31;4953384;29;20019;-69
2020/12/12 00:30:39;;;;;;;30.20;15.68;;;;;;;2.39;94.06;96756.59;4953355;29;20023;-69
2020/12/12 00:33:04;;;;;;;24.13;14.68;;;;;;;2.41;93.88;96754.00;4953088;28;20019;-69
2020/12/12 00:35:30;;;;;;;27.90;15.40;;;;;;;2.39;94.33;96755.78;4953155;29;20031;-69
2020/12/12 00:37:55;;;;;;;27.95;15.38;;;;;;;2.39;94.70;96754.06;4953221;28;20027;-69
2020/12/12 00:40:20;;;;;;;26.25;14.98;;;;;;;2.38;94.66;96744.72;4953222;28;20416;-69
2020/12/12 00:42:45;;;;;;;27.73;15.02;;;;;;;2.36;94.82;96745.59;4953012;29;20099;-69
2020/12/12 00:45:11;;;;;;;25.25;14.77;;;;;;;2.32;95.13;96747.34;4953010;28;20457;-69
2020/12/12 00:47:37;;;;;;;28.70;15.98;;;;;;;2.30;95.51;96744.84;4953043;29;20035;-69
2020/12/12 00:50:03;;;;;;;29.80;16.00;;;;;;;2.28;95.72;96751.69;4953234;28;20034;-69
2020/12/12 00:52:28;;;;;;;29.20;15.93;;;;;;;2.28;96.00;96751.69;4952939;28;20424;-69
2020/12/12 00:54:53;;;;;;;28.73;16.42;;;;;;;2.27;96.09;96755.13;4953404;28;20027;-69
2020/12/12 00:57:19;;;;;;;32.83;17.10;;;;;;;2.25;96.00;96750.91;4953181;28;20091;-69
2020/12/12 00:59:44;;;;;;;30.15;16.52;;;;;;;2.29;96.06;96753.38;4953182;29;20373;-69
2020/12/12 08:02:05;;;;;;;43.40;21.73;;;;;;;2.83;95.47;96904.06;5251489;23;20572;-67
2020/12/12 08:04:32;;;;;;;37.53;21.77;;;;;;;2.81;95.58;96915.22;4992690;28;20034;-67
2020/12/12 08:06:57;;;;;;;41.45;22.83;;;;;;;2.87;95.49;96914.25;4993022;28;20018;-67
2020/12/12 08:09:24;;;;;;;39.33;20.20;;;;;;;2.89;94.94;96912.50;4993002;28;20033;-67
2020/12/12 08:11:57;;;;;;;36.13;20.80;;;;;;;2.98;95.00;96912.34;4979133;28;20027;-67
2020/12/12 08:14:23;;;;;;;29.50;18.60;;;;;;;3.27;94.07;96922.88;4973037;28;20022;-67
2020/12/12 08:16:53;;;;;;;33.03;19.13;;;;;;;3.04;93.87;96923.28;5025674;23;20057;-66
2020/12/12 08:19:19;;;;;;;35.45;18.80;;;;;;;3.18;94.22;96925.59;4992618;28;20061;-65
2020/12/12 08:21:48;;;;;;;33.95;19.65;;;;;;;3.27;94.02;96930.56;4992177;28;20116;-66
2020/12/12 08:24:14;;;;;;;34.17;19.17;;;;;;;3.31;94.38;96932.19;4991604;28;20093;-65
2020/12/12 08:26:39;;;;;;;34.83;18.95;;;;;;;3.29;94.79;96926.28;4978600;28;20093;-66
2020/12/12 08:29:05;;;;;;;36.03;19.73;;;;;;;3.43;94.39;96940.50;4972714;28;20026;-66
2020/12/12 08:31:40;;;;;;;38.58;19.58;;;;;;;3.35;94.04;96944.06;4972728;28;20464;-66
2020/12/12 08:34:07;;;;;;;39.92;20.60;;;;;;;3.37;94.49;96948.31;4972619;28;20042;-66
2020/12/12 08:36:36;;;;;;;46.00;24.23;;;;;;;3.27;95.08;96953.59;4972692;28;20483;-66
2020/12/12 08:39:06;;;;;;;39.08;19.88;;;;;;;3.33;95.11;96960.31;4972562;28;20030;-72
2020/12/12 08:41:33;;;;;;;45.10;21.92;;;;;;;3.42;94.10;96964.41;4972502;28;20030;-73
2020/12/12 08:44:00;;;;;;;41.47;21.75;;;;;;;3.31;95.41;96962.06;4972329;28;20468;-72
2020/12/12 08:46:25;;;;;;;44.65;23.35;;;;;;;3.61;94.39;96965.75;4972477;28;20158;-72
2020/12/12 08:48:52;;;;;;;39.72;21.58;;;;;;;3.47;94.71;96962.59;4972422;28;20506;-66
2020/12/12 08:51:30;;;;;;;52.95;21.75;;;;;;;3.34;95.20;96967.97;4972383;28;20026;-70
2020/12/12 08:53:55;;;;;;;46.78;23.00;;;;;;;3.44;95.20;96972.94;4972616;28;20033;-70
2020/12/12 08:56:21;;;;;;;50.72;22.35;;;;;;;3.37;95.43;96976.47;4972339;28;20404;-72
2020/12/12 08:58:55;;;;;;;41.72;20.83;;;;;;;3.34;95.59;96980.78;4972388;28;20353;-69
2020/12/12 09:01:42;;;;;;;49.97;22.80;;;;;;;3.38;96.05;96983.25;4972493;28;20022;-69
2020/12/12 09:04:07;;;;;;;36.60;20.67;;;;;;;3.35;96.50;96990.13;4972106;28;20037;-69
2020/12/12 09:06:45;;;;;;;47.13;21.50;;;;;;;3.47;96.38;96995.88;4971017;28;20551;-69
2020/12/12 09:09:15;;;;;;;53.83;23.35;;;;;;;3.47;96.30;96995.88;4972170;28;20130;-66
2020/12/12 09:11:58;;;;;;;57.17;22.27;;;;;;;3.47;96.43;96996.72;4972270;28;20034;-66
2020/12/12 09:14:26;;;;;;;60.75;23.42;;;;;;;3.47;96.82;97001.00;4972500;28;20042;-66
2020/12/12 09:17:06;;;;;;;52.38;24.80;;;;;;;3.57;96.39;97010.19;4972114;28;20061;-66
2020/12/12 09:19:33;;;;;;;53.83;22.98;;;;;;;3.70;96.58;97006.53;4972086;28;20105;-68
2020/12/12 09:21:59;;;;;;;51.63;23.48;;;;;;;3.80;96.78;96997.81;4971249;28;20396;-69
2020/12/12 09:24:25;;;;;;;30.23;14.52;;;;;;;4.07;96.05;97005.81;4971834;28;20058;-69
2020/12/12 09:26:56;;;;;;;35.50;17.90;;;;;;;4.23;95.40;97002.03;4972254;28;20027;-70
2020/12/12 09:29:21;;;;;;;36.38;19.90;;;;;;;4.34;95.99;97005.19;4972105;28;20030;-70
2020/12/12 09:31:49;;;;;;;46.70;23.13;;;;;;;4.46;95.75;97013.53;4972132;28;20082;-70
2020/12/12 09:34:15;;;;;;;50.13;23.58;;;;;;;4.56;95.00;97012.44;4973194;28;20486;-70
2020/12/12 09:36:41;;;;;;;50.38;22.10;;;;;;;4.49;94.62;97019.41;4976249;28;20041;-70
2020/12/12 09:39:06;;;;;;;47.28;22.15;;;;;;;4.69;94.79;97018.97;4975941;28;20031;-70
2020/12/12 09:41:32;;;;;;;65.63;22.85;;;;;;;4.50;94.69;97021.13;4975936;28;20019;-70
2020/12/12 09:43:58;;;;;;;43.58;19.30;;;;;;;4.46;94.92;97028.91;4975724;28;20035;-70
2020/12/12 09:46:23;;;;;;;66.75;21.38;;;;;;;4.32;95.66;97035.16;4975854;28;20041;-70
2020/12/12 09:48:49;;;;;;;57.95;20.67;;;;;;;4.33;95.83;97029.16;4975764;28;20030;-70
2020/12/12 09:51:16;;;;;;;47.95;20.70;;;;;;;4.43;96.13;97028.97;4975725;28;20114;-71
2020/12/12 09:53:43;;;;;;;52.33;21.60;;;;;;;4.27;96.11;97042.13;4975616;28;20062;-70
2020/12/12 09:56:11;;;;;;;32.67;15.80;;;;;;;4.46;95.63;97041.72;4975545;28;20022;-70
2020/12/12 09:58:36;;;;;;;33.45;16.65;;;;;;;4.51;96.14;97047.59;4975647;28;20121;-70
2020/12/12 10:01:03;;;;;;;48.17;20.73;;;;;;;4.59;95.93;97045.69;4975523;28;20147;-70
2020/12/12 10:03:29;;;;;;;48.75;22.52;;;;;;;4.55;95.87;97049.22;4975401;28;20062;-70
2020/12/12 10:05:54;;;;;;;33.15;16.55;;;;;;;4.51;96.31;97050.16;4975373;28;20093;-70
2020/12/12 10:08:19;;;;;;;14.85;9.02;;;;;;;4.60;94.71;97048.25;4975563;28;20125;-70
2020/12/12 10:10:45;;;;;;;7.05;5.30;;;;;;;4.72;94.96;97049.66;4975327;28;20447;-70
2020/12/12 10:13:11;;;;;;;6.70;4.45;;;;;;;4.73;94.38;97051.34;4975479;28;20488;-70
2020/12/12 10:15:36;;;;;;;8.48;4.38;;;;;;;4.81;93.85;97057.16;4974961;28;20038;-70
2020/12/12 10:18:01;;;;;;;6.10;3.80;;;;;;;4.85;92.50;97058.78;4975482;28;20066;-72
2020/12/12 10:20:27;;;;;;;3.78;3.42;;;;;;;4.83;93.07;97059.69;4975353;28;20395;-70
2020/12/12 10:22:52;;;;;;;4.57;3.60;;;;;;;4.95;92.15;97058.56;4975139;28;20369;-70
2020/12/12 10:25:19;;;;;;;5.05;4.55;;;;;;;4.96;93.08;97065.38;4975090;28;20030;-71
2020/12/12 10:27:45;;;;;;;9.18;4.30;;;;;;;5.03;92.36;97066.91;4975227;28;20097;-70
2020/12/12 10:30:12;;;;;;;5.90;3.40;;;;;;;5.11;91.08;97054.75;4974873;28;20027;-71
2020/12/12 10:32:38;;;;;;;5.22;3.50;;;;;;;5.12;89.95;97064.13;4975062;28;20026;-72
2020/12/12 10:35:05;;;;;;;4.10;3.30;;;;;;;5.21;89.77;97061.34;4974767;28;20042;-71
2020/12/12 10:37:31;;;;;;;3.40;2.92;;;;;;;5.18;88.96;97061.44;4975237;28;20031;-71
2020/12/12 10:42:36;;;;;;;5.10;3.30;;;;;;;5.32;90.21;97067.06;4974752;28;20035;-71
2020/12/12 10:45:06;;;;;;;12.25;5.85;;;;;;;5.39;90.30;97068.59;4974459;28;20023;-71
2020/12/12 10:47:31;;;;;;;19.35;8.10;;;;;;;5.51;90.95;97074.31;4974374;28;20045;-71
2020/12/12 10:49:56;;;;;;;6.30;4.93;;;;;;;5.53;89.51;97072.56;4974941;28;20472;-70
2020/12/12 10:52:22;;;;;;;6.45;3.85;;;;;;;5.48;88.64;97070.09;4974698;28;20421;-70
2020/12/12 10:54:49;;;;;;;5.80;3.28;;;;;;;5.54;88.24;97079.38;4974393;28;20029;-70
2020/12/12 10:57:14;;;;;;;4.22;3.10;;;;;;;5.53;89.17;97075.13;4974811;28;20531;-70
2020/12/12 10:59:43;;;;;;;9.13;4.68;;;;;;;5.60;90.08;97079.22;4974593;28;20038;-71
2020/12/12 11:02:12;;;;;;;8.00;4.30;;;;;;;5.61;89.64;97080.91;4974255;28;20058;-71
2020/12/12 11:04:42;;;;;;;15.85;9.73;;;;;;;5.53;89.82;97072.56;4974405;28;20019;-71
2020/12/12 11:07:08;;;;;;;7.38;4.97;;;;;;;5.56;89.75;97073.31;4974215;28;20026;-71
2020/12/12 11:09:34;;;;;;;5.35;3.95;;;;;;;5.67;91.11;97080.75;4974350;28;20062;-71
2020/12/12 11:12:00;;;;;;;5.93;4.07;;;;;;;5.82;91.02;97075.19;4974179;28;20500;-71
2020/12/12 11:14:28;;;;;;;10.32;5.50;;;;;;;5.93;90.38;97074.94;4974438;28;20023;-71
2020/12/12 11:16:55;;;;;;;11.23;6.32;;;;;;;5.91;89.05;97071.56;4974044;28;20022;-71
2020/12/12 11:19:21;;;;;;;9.10;5.72;;;;;;;5.98;89.04;97080.81;4974575;28;20026;-71
2020/12/12 11:21:46;;;;;;;13.80;6.43;;;;;;;5.86;90.64;97076.81;4974168;28;20031;-71
2020/12/12 11:24:12;;;;;;;10.45;5.00;;;;;;;5.97;89.80;97078.28;4974106;28;20392;-71
2020/12/12 11:26:37;;;;;;;6.60;4.72;;;;;;;6.22;89.18;97079.28;4973852;28;20027;-71
2020/12/12 11:29:03;;;;;;;5.05;3.72;;;;;;;6.01;88.41;97080.72;4973862;28;20030;-69
2020/12/12 11:31:28;;;;;;;4.97;3.28;;;;;;;6.04;87.36;97079.78;4974029;28;20031;-70
2020/12/12 11:34:00;;;;;;;9.02;4.60;;;;;;;6.10;88.20;97079.63;4973941;28;20034;-70
2020/12/12 11:36:44;;;;;;;5.82;3.67;;;;;;;6.07;87.48;97084.84;4973680;28;20395;-70
2020/12/12 11:39:27;;;;;;;6.65;4.43;;;;;;;5.96;88.15;97086.88;4973711;28;20023;-71
2020/12/12 11:42:04;;;;;;;7.80;3.30;;;;;;;6.00;88.29;97091.06;4972060;28;20050;-70
2020/12/12 11:47:25;;;;;;;4.72;3.22;;;;;;;6.26;87.46;97098.88;5003330;28;20033;-70
2020/12/12 11:49:52;;;;;;;9.60;5.00;;;;;;;6.17;86.73;97102.56;4973211;28;20026;-70
2020/12/12 11:52:17;;;;;;;5.07;4.00;;;;;;;6.08;87.29;97100.22;4971784;28;20468;-70
2020/12/12 11:54:43;;;;;;;5.82;4.47;;;;;;;6.09;88.19;97098.50;4973063;28;20050;-70
2020/12/12 11:57:08;;;;;;;10.63;3.72;;;;;;;6.12;87.76;97103.56;4973077;28;20026;-68
2020/12/12 11:59:34;;;;;;;6.53;4.28;;;;;;;6.11;88.48;97107.03;4973074;28;20023;-68
2020/12/12 12:01:59;;;;;;;24.42;12.88;;;;;;;6.13;87.68;97107.81;4973145;28;20035;-69
2020/12/12 12:04:24;;;;;;;26.15;13.80;;;;;;;6.13;88.28;97105.25;4972726;28;20029;-70
2020/12/12 12:06:50;;;;;;;10.70;7.30;;;;;;;6.21;87.73;97103.31;4973151;28;20030;-70
2020/12/12 12:09:30;;;;;;;12.68;6.18;;;;;;;6.23;88.25;97104.09;4973104;28;20058;-70
2020/12/12 12:11:56;;;;;;;5.70;4.00;;;;;;;6.20;87.07;97109.34;4957330;28;20088;-70
2020/12/12 12:14:21;;;;;;;6.22;4.25;;;;;;;6.22;86.29;97115.28;4972381;28;20113;-70
2020/12/12 12:16:46;;;;;;;3.55;3.25;;;;;;;6.28;86.59;97119.41;4972784;28;20038;-70
2020/12/12 12:19:13;;;;;;;5.50;3.35;;;;;;;6.19;87.55;97120.53;4972829;28;20038;-69
2020/12/12 12:21:39;;;;;;;9.77;3.30;;;;;;;5.94;89.99;97125.47;4973070;28;20027;-69
2020/12/12 12:24:07;;;;;;;4.07;3.38;;;;;;;6.02;88.99;97123.53;4972780;28;20101;-70
2020/12/12 12:26:36;;;;;;;7.15;4.18;;;;;;;6.09;88.88;97126.78;4972656;28;20030;-68
2020/12/12 12:29:06;;;;;;;34.45;16.00;;;;;;;6.08;89.59;97125.94;4972560;28;20109;-69
2020/12/12 12:31:31;;;;;;;10.20;5.75;;;;;;;6.21;89.72;97128.19;4972663;28;20070;-70
2020/12/12 12:33:57;;;;;;;5.05;3.80;;;;;;;6.23;88.83;97132.38;4972595;28;20050;-68
2020/12/12 12:36:25;;;;;;;4.43;3.72;;;;;;;5.91;90.94;97135.81;4972674;28;20105;-69
2020/12/12 12:38:54;;;;;;;5.70;4.20;;;;;;;6.11;91.09;97133.59;4972580;28;20031;-70
2020/12/12 12:41:20;;;;;;;4.63;4.23;;;;;;;6.08;91.20;97132.81;4972396;28;20373;-70
2020/12/12 12:43:46;;;;;;;8.13;3.90;;;;;;;6.08;91.58;97132.81;4972236;28;20030;-69
2020/12/12 12:46:12;;;;;;;4.13;3.35;;;;;;;6.24;91.11;97144.38;4972322;28;20038;-69
2020/12/12 12:48:37;;;;;;;5.88;4.43;;;;;;;6.11;91.00;97138.72;4972494;28;20042;-69
2020/12/12 12:51:06;;;;;;;5.50;4.05;;;;;;;5.92;92.09;97148.66;4972459;28;20415;-70
2020/12/12 12:53:31;;;;;;;6.95;3.80;;;;;;;6.11;92.34;97137.88;4972167;28;20082;-68
2020/12/12 12:55:56;;;;;;;13.93;4.72;;;;;;;6.01;91.88;97151.88;4972251;28;20373;-70
2020/12/12 12:58:22;;;;;;;8.88;4.72;;;;;;;6.17;91.69;97145.44;4972152;28;20089;-69
2020/12/12 13:00:47;;;;;;;6.10;4.10;;;;;;;6.20;91.74;97142.78;4972116;28;20026;-70
2020/12/12 13:03:12;;;;;;;5.80;4.95;;;;;;;6.26;91.73;97147.75;4972039;28;20035;-69
2020/12/12 13:05:39;;;;;;;9.07;5.22;;;;;;;6.28;91.46;97156.25;4972123;28;20034;-69
2020/12/12 13:08:04;;;;;;;9.48;6.82;;;;;;;6.24;91.79;97156.38;4972272;28;20033;-69
2020/12/12 13:10:30;;;;;;;28.23;17.05;;;;;;;6.32;91.35;97157.88;4971624;28;20019;-70
2020/12/12 13:12:56;;;;;;;14.68;8.02;;;;;;;6.30;91.47;97149.34;4971879;28;20042;-71
2020/12/12 13:15:21;;;;;;;10.15;6.50;;;;;;;6.28;91.51;97156.25;4971906;28;20058;-69
2020/12/12 13:17:46;;;;;;;15.40;7.40;;;;;;;6.20;90.19;97158.22;4972182;28;20031;-69
2020/12/12 13:20:43;;;;;;;11.85;7.70;;;;;;;6.19;91.08;97156.53;4971892;28;20031;-71
2020/12/12 13:22:57;;;;;;;7.68;4.55;;;;;;;6.14;91.99;97160.91;4971876;28;20073;-71
2020/12/12 13:25:23;;;;;;;9.20;4.40;;;;;;;6.23;91.42;97158.09;4971868;28;20027;-69
2020/12/12 13:27:50;;;;;;;7.28;4.05;;;;;;;6.10;92.78;97167.06;4971997;28;20031;-70
2020/12/12 13:30:20;;;;;;;9.25;5.32;;;;;;;6.22;92.25;97169.28;4971721;28;20030;-70
2020/12/12 13:32:47;;;;;;;10.63;5.78;;;;;;;6.30;91.80;97166.53;4971860;28;20027;-71
2020/12/12 13:35:12;;;;;;;8.48;5.70;;;;;;;6.40;91.84;97171.38;4971685;28;20077;-69
2020/12/12 13:37:38;;;;;;;7.22;5.05;;;;;;;6.41;91.78;97178.19;4971882;28;20030;-70
2020/12/12 13:40:06;;;;;;;6.68;4.97;;;;;;;6.42;91.76;97169.59;4971666;28;20027;-69
2020/12/12 13:42:35;;;;;;;7.50;5.47;;;;;;;6.52;92.07;97177.06;4971825;28;20027;-69
2020/12/12 13:45:03;;;;;;;6.25;4.25;;;;;;;6.64;91.18;97179.31;4972241;28;20085;-70
2020/12/12 13:47:28;;;;;;;10.55;5.35;;;;;;;6.47;92.35;97182.31;4971952;28;20027;-69
2020/12/12 13:49:53;;;;;;;5.05;4.55;;;;;;;6.67;91.38;97179.19;4971859;28;20404;-70
2020/12/12 13:52:19;;;;;;;5.88;4.70;;;;;;;6.25;91.67;97192.38;4971580;28;20076;-69
2020/12/12 13:54:44;;;;;;;5.75;4.65;;;;;;;6.16;91.80;97193.44;4971832;28;20034;-68
2020/12/12 13:57:09;;;;;;;6.50;4.55;;;;;;;6.03;91.68;97196.38;4971686;28;20019;-70
2020/12/12 13:59:35;;;;;;;10.55;5.70;;;;;;;6.01;93.25;97208.44;4971594;28;20034;-70
2020/12/12 14:02:00;;;;;;;6.60;5.18;;;;;;;6.11;92.76;97207.31;4971649;28;20033;-70
2020/12/12 14:04:25;;;;;;;7.68;5.03;;;;;;;6.10;93.10;97213.34;4971525;28;20054;-69
2020/12/12 14:06:57;;;;;;;7.90;4.75;;;;;;;6.07;93.36;97211.66;4971599;28;20023;-70
2020/12/12 14:20:53;;;;;;;5.95;4.85;;;;;;;5.92;93.29;97241.19;4956547;28;20038;-66
2020/12/12 14:23:02;;;;;;;8.25;5.57;;;;;;;5.86;94.30;97246.44;4974821;28;20086;-66
2020/12/12 14:25:28;;;;;;;5.55;4.78;;;;;;;5.95;94.91;97245.41;4974964;28;20084;-66
2020/12/12 14:30:41;;;;;;;12.02;8.10;;;;;;;5.86;96.11;97253.31;4975024;28;20069;-67
2020/12/12 14:33:09;;;;;;;11.52;7.05;;;;;;;5.88;95.98;97260.09;4974672;28;20047;-66
2020/12/12 14:35:35;;;;;;;13.57;6.53;;;;;;;5.87;96.17;97262.69;4974793;28;20093;-67
2020/12/12 14:38:02;;;;;;;14.27;7.65;;;;;;;5.87;96.55;97263.53;4975006;28;20031;-67
2020/12/12 14:40:28;;;;;;;13.40;8.10;;;;;;;5.90;96.71;97267.78;4974533;28;20031;-68
2020/12/12 14:42:53;;;;;;;12.88;7.82;;;;;;;5.87;97.03;97278.13;4974683;28;20085;-67
2020/12/12 14:45:18;;;;;;;10.27;7.53;;;;;;;5.87;97.09;97273.81;4974534;28;20089;-67
2020/12/12 14:47:44;;;;;;;11.20;8.00;;;;;;;5.87;97.23;97278.97;4974727;28;20097;-72
2020/12/12 14:50:11;;;;;;;15.52;9.30;;;;;;;5.84;97.37;97283.31;4974440;28;20033;-66
2020/12/12 14:52:37;;;;;;;28.13;14.77;;;;;;;5.84;97.42;97288.47;4974195;28;20046;-66
2020/12/12 14:55:02;;;;;;;25.27;15.43;;;;;;;5.83;97.63;97287.63;4974413;28;20023;-67
2020/12/12 14:57:30;;;;;;;21.20;13.32;;;;;;;5.87;97.65;97289.25;4974308;28;20042;-67
2020/12/12 14:59:55;;;;;;;22.05;13.13;;;;;;;5.87;97.68;97294.38;4958442;28;20027;-68
2020/12/12 15:02:21;;;;;;;28.02;11.73;;;;;;;5.81;97.99;97299.69;4974125;28;20026;-67
2020/12/12 15:04:48;;;;;;;31.30;12.05;;;;;;;5.83;98.02;97299.63;4974126;28;20106;-67
2020/12/12 15:07:13;;;;;;;23.33;11.18;;;;;;;5.76;98.31;97306.66;4974159;28;20519;-71
2020/12/12 15:09:39;;;;;;;29.23;13.68;;;;;;;5.75;98.40;97310.06;4974117;28;20176;-73
2020/12/12 15:12:04;;;;;;;23.38;12.50;;;;;;;5.71;98.50;97308.47;4973952;28;20030;-74
2020/12/12 15:14:29;;;;;;;34.47;12.60;;;;;;;5.68;98.67;97316.25;4974159;28;20078;-72
2020/12/12 15:16:55;;;;;;;25.05;12.07;;;;;;;5.69;98.52;97320.50;4974020;28;20034;-71
2020/12/12 15:19:20;;;;;;;31.23;13.65;;;;;;;5.64;98.82;97320.59;4973921;28;20033;-71
2020/12/12 15:21:45;;;;;;;30.00;13.52;;;;;;;5.60;98.94;97324.09;4973792;28;20113;-72
2020/12/12 15:24:11;;;;;;;32.13;15.52;;;;;;;5.63;99.38;97325.78;4973841;28;20089;-78
2020/12/12 15:26:37;;;;;;;31.20;16.95;;;;;;;5.64;99.27;97322.31;4974833;28;20496;-71
2020/12/12 15:29:04;;;;;;;34.40;18.35;;;;;;;5.59;99.37;97329.28;4973132;28;20029;-71
2020/12/12 15:31:32;;;;;;;31.13;15.13;;;;;;;5.62;99.35;97334.38;4984252;28;20029;-71
2020/12/12 15:33:57;;;;;;;24.65;14.07;;;;;;;5.69;99.35;97335.91;4957906;28;20026;-70
2020/12/12 15:36:23;;;;;;;29.95;14.45;;;;;;;5.69;99.30;97341.06;4973450;28;20384;-71
2020/12/12 15:38:51;;;;;;;28.85;16.80;;;;;;;5.58;99.29;97343.84;4973697;28;20027;-71
2020/12/12 15:41:17;;;;;;;28.48;15.60;;;;;;;5.66;99.37;97348.84;4973607;28;20030;-71
2020/12/12 15:43:43;;;;;;;24.88;13.00;;;;;;;5.64;99.25;97354.00;4973560;28;20104;-71
2020/12/12 15:46:08;;;;;;;24.92;14.07;;;;;;;5.62;99.29;97347.22;4973395;28;20180;-71
2020/12/12 15:48:33;;;;;;;29.10;15.68;;;;;;;5.60;99.43;97356.66;4973454;28;20030;-71
2020/12/12 15:50:59;;;;;;;37.92;20.10;;;;;;;5.61;99.89;97364.34;4973531;28;20116;-71
2020/12/12 15:53:26;;;;;;;32.75;18.10;;;;;;;5.64;99.72;97363.44;4973138;28;20106;-71
2020/12/12 15:55:51;;;;;;;29.90;16.83;;;;;;;5.65;99.60;97357.41;4973284;28;20601;-70
2020/12/12 15:58:17;;;;;;;30.63;13.80;;;;;;;5.63;99.55;97362.59;4973310;28;20027;-70
2020/12/12 16:00:42;;;;;;;26.35;12.75;;;;;;;5.61;99.75;97361.78;4973171;28;20506;-71
2020/12/12 16:03:08;;;;;;;26.85;13.52;;;;;;;5.58;99.94;97364.41;4972974;28;20027;-71
2020/12/12 16:05:34;;;;;;;35.50;15.98;;;;;;;5.56;100.00;97375.59;4972894;28;20102;-72
2020/12/12 16:08:00;;;;;;;30.15;14.60;;;;;;;5.58;100.00;97369.56;4973378;28;20027;-72
2020/12/12 16:10:25;;;;;;;31.73;14.50;;;;;;;5.56;99.93;97380.72;4972889;28;20037;-71
2020/12/12 16:12:51;;;;;;;29.80;14.23;;;;;;;5.57;100.00;97377.31;4972969;28;20027;-71
2020/12/12 16:15:17;;;;;;;28.23;15.32;;;;;;;5.57;100.00;97382.44;4972638;28;20023;-70
2020/12/12 16:17:43;;;;;;;29.33;15.73;;;;;;;5.61;100.00;97386.63;4972858;28;20031;-70
2020/12/12 16:20:09;;;;;;;23.90;12.73;;;;;;;5.59;99.98;97396.09;4972840;28;20022;-71
2020/12/12 16:22:35;;;;;;;19.02;12.25;;;;;;;5.61;99.88;97399.50;4972541;28;20497;-71
2020/12/12 16:25:02;;;;;;;27.67;14.30;;;;;;;5.63;99.75;97392.59;4972696;28;20035;-71
2020/12/12 16:27:32;;;;;;;22.45;12.75;;;;;;;5.56;99.59;97399.59;4971439;28;20452;-71
2020/12/12 16:29:58;;;;;;;22.65;13.52;;;;;;;5.49;99.21;97402.28;4957047;28;20037;-71
2020/12/12 16:32:23;;;;;;;20.52;12.18;;;;;;;5.56;98.83;97408.97;4972445;28;20106;-71
2020/12/12 16:34:49;;;;;;;27.05;13.55;;;;;;;5.60;98.76;97418.31;4972486;28;20095;-71
2020/12/12 16:37:14;;;;;;;23.25;14.98;;;;;;;5.55;99.05;97415.00;4972623;28;20027;-70
2020/12/12 16:39:39;;;;;;;28.30;15.00;;;;;;;5.60;99.12;97418.31;4972621;28;20023;-70
2020/12/12 16:42:05;;;;;;;32.03;17.73;;;;;;;5.77;99.14;97416.28;4972660;28;20023;-71
2020/12/12 16:44:30;;;;;;;32.33;17.63;;;;;;;5.63;99.13;97423.41;4971716;28;20072;-70
2020/12/12 16:46:55;;;;;;;22.30;14.43;;;;;;;5.64;99.26;97425.09;4972380;28;20173;-70
2020/12/12 16:49:21;;;;;;;25.35;14.75;;;;;;;5.60;99.48;97426.03;4972164;28;20038;-70
2020/12/12 16:51:46;;;;;;;50.35;33.25;;;;;;;5.55;99.50;97435.56;4972361;28;20507;-71
2020/12/12 16:54:12;;;;;;;38.53;25.00;;;;;;;5.48;99.68;97439.13;4972089;28;20086;-71
2020/12/12 16:56:46;;;;;;;15.50;10.77;;;;;;;5.66;99.38;97439.63;4972206;28;20030;-70
2020/12/12 16:59:13;;;;;;;24.42;11.98;;;;;;;5.57;98.96;97436.38;4971320;28;20042;-71
2020/12/12 17:01:43;;;;;;;21.70;13.15;;;;;;;5.51;99.31;97455.34;4971903;28;20418;-69
2020/12/12 17:04:13;;;;;;;44.50;24.27;;;;;;;5.54;99.15;97449.28;4972108;28;20077;-71
2020/12/12 17:06:38;;;;;;;42.67;22.65;;;;;;;5.56;99.24;97453.53;4972038;28;20599;-70
2020/12/12 17:09:06;;;;;;;38.97;24.02;;;;;;;5.46;99.64;97462.25;4972056;28;20114;-70
2020/12/12 17:11:32;;;;;;;26.48;20.55;;;;;;;5.50;99.82;97457.91;4972024;28;20447;-70
2020/12/12 17:13:58;;;;;;;27.85;16.23;;;;;;;5.41;99.85;97459.81;4971871;28;20106;-69
2020/12/12 17:16:27;;;;;;;16.67;11.70;;;;;;;5.60;100.00;97462.00;4971787;28;20460;-70
2020/12/12 17:18:53;;;;;;;22.20;13.43;;;;;;;5.47;99.71;97463.13;4972164;28;20026;-69
2020/12/12 17:21:25;;;;;;;19.60;15.13;;;;;;;5.48;99.85;97465.66;4970980;28;20053;-69
2020/12/12 17:23:51;;;;;;;18.35;13.02;;;;;;;5.50;100.00;97463.06;4970706;28;20109;-70
2020/12/12 17:26:16;;;;;;;37.72;24.90;;;;;;;5.56;100.00;97468.06;4972130;28;20030;-70
2020/12/12 17:28:41;;;;;;;74.97;32.42;;;;;;;5.50;100.00;97470.75;4971932;28;20448;-70
2020/12/12 17:31:07;;;;;;;58.47;35.92;;;;;;;5.55;100.00;97480.06;4971903;28;20634;-70
2020/12/12 17:33:32;;;;;;;29.75;20.92;;;;;;;5.59;100.00;97483.44;4971773;28;20404;-70
2020/12/12 17:35:58;;;;;;;30.75;18.45;;;;;;;5.48;100.00;97480.22;4971692;28;20023;-70
2020/12/12 17:38:23;;;;;;;24.67;16.60;;;;;;;5.48;99.85;97482.81;4970736;28;20403;-70
2020/12/12 17:40:48;;;;;;;17.83;14.18;;;;;;;5.56;99.74;97484.34;4971732;28;20158;-70
2020/12/12 17:43:14;;;;;;;24.00;15.02;;;;;;;5.59;99.75;97483.44;4971727;28;20022;-71
2020/12/12 17:45:39;;;;;;;26.80;19.45;;;;;;;5.56;99.83;97493.75;4971397;28;20030;-71
2020/12/12 17:48:04;;;;;;;28.17;17.35;;;;;;;5.59;99.65;97493.72;4970553;28;20049;-71
2020/12/12 17:50:30;;;;;;;77.22;39.60;;;;;;;5.69;99.48;97490.09;4970485;28;20165;-70
2020/12/12 17:52:55;;;;;;;29.58;19.80;;;;;;;5.62;99.65;97498.81;4970340;28;20046;-73
2020/12/12 17:55:22;;;;;;;45.33;25.17;;;;;;;5.58;99.58;97499.72;4971710;28;20026;-73
2020/12/12 17:57:51;;;;;;;72.50;39.00;;;;;;;5.61;99.58;97507.41;4975469;28;20105;-73
2020/12/12 18:00:19;;;;;;;27.33;17.27;;;;;;;5.60;99.49;97506.53;4974807;28;20391;-73
2020/12/12 18:02:45;;;;;;;35.17;19.88;;;;;;;5.58;99.54;97507.44;4975142;28;20093;-70
2020/12/12 18:05:11;;;;;;;20.15;12.48;;;;;;;5.56;99.38;97509.16;4975194;28;20026;-72
2020/12/12 18:07:37;;;;;;;47.35;24.60;;;;;;;5.60;99.30;97510.81;4975312;28;20507;-73
2020/12/12 18:10:06;;;;;;;55.28;27.92;;;;;;;5.57;99.54;97521.16;4975131;28;20027;-70
2020/12/12 18:12:31;;;;;;;41.45;23.33;;;;;;;5.58;99.64;97525.44;4975222;28;20026;-70
2020/12/12 18:14:57;;;;;;;53.22;28.73;;;;;;;5.59;100.00;97524.53;4975028;28;20536;-69
2020/12/12 18:17:22;;;;;;;48.33;27.30;;;;;;;5.62;99.97;97524.50;4974831;28;20038;-70
2020/12/12 18:19:48;;;;;;;33.47;19.20;;;;;;;5.54;99.75;97526.34;4975081;28;20036;-73
2020/12/12 18:22:13;;;;;;;28.92;17.70;;;;;;;5.53;99.88;97530.66;4974851;28;20085;-70
2020/12/12 18:24:39;;;;;;;20.27;13.70;;;;;;;5.55;100.00;97538.31;4974896;28;20104;-71
2020/12/12 18:27:06;;;;;;;19.40;12.98;;;;;;;5.63;100.00;97546.75;4974913;28;20101;-70
2020/12/12 18:29:32;;;;;;;15.50;10.15;;;;;;;5.84;98.94;97540.34;4974686;28;20037;-70
2020/12/12 18:31:58;;;;;;;10.95;8.50;;;;;;;5.81;98.08;97548.13;4974881;28;20023;-70
2020/12/12 18:34:23;;;;;;;10.27;7.75;;;;;;;5.74;98.36;97549.94;4974573;28;20167;-70
2020/12/12 18:36:48;;;;;;;13.93;7.85;;;;;;;5.77;98.12;97549.06;4974806;28;20022;-70
2020/12/12 18:39:15;;;;;;;13.52;8.65;;;;;;;5.78;98.29;97551.59;4974712;28;20561;-70
2020/12/12 18:41:41;;;;;;;13.98;9.18;;;;;;;5.67;98.41;97558.66;4974603;28;20043;-70
2020/12/12 18:44:07;;;;;;;12.35;9.30;;;;;;;5.68;98.35;97555.22;4973344;28;20404;-70
2020/12/12 18:46:40;;;;;;;20.33;12.25;;;;;;;5.72;98.70;97564.56;4974449;28;20178;-70